Time;durP1;ratioP1;P1;durP2;ratioP2;P2;SDS_P1;SDS_P2;PMS_P1;PMS_P2;Temp;Humidity;BMP_temperature;BMP_pressure;BME280_temperature;BME280_humidity;BME280_pressure;Samples;Min_cycle;Max_cycle;Signal;HPM_P1;HPM_P2
2023/05/10 00:01:58;;;;;;;6.85;1.60;;;15.30;92.40;;;;;;7383339;19;20306;-73
2023/05/10 00:04:27;;;;;;;13.20;1.75;;;15.50;92.40;;;;;;7381280;19;20353;-73
2023/05/10 00:06:55;;;;;;;10.43;1.80;;;15.50;92.00;;;;;;7382745;19;20023;-73
2023/05/10 00:09:27;;;;;;;6.88;1.45;;;15.60;91.80;;;;;;7403381;19;20010;-73
2023/05/10 00:11:58;;;;;;;14.13;1.67;;;15.60;91.50;;;;;;7382329;19;20018;-73
2023/05/10 00:14:26;;;;;;;6.93;1.27;;;15.70;91.70;;;;;;7382595;19;20003;-73
2023/05/10 00:16:55;;;;;;;6.78;1.25;;;15.70;91.60;;;;;;7382269;19;20388;-73
2023/05/10 00:19:27;;;;;;;9.75;1.55;;;15.60;91.70;;;;;;7382344;19;20274;-74
2023/05/10 00:21:55;;;;;;;;;;;15.70;91.80;;;;;;7382118;19;20066;-73
2023/05/10 00:24:27;;;;;;;4.32;1.20;;;15.90;92.20;;;;;;7402495;19;19954;-73
2023/05/10 00:26:55;;;;;;;7.40;1.27;;;15.90;91.80;;;;;;7381703;19;20006;-73
2023/05/10 00:29:24;;;;;;;9.10;2.13;;;15.90;91.50;;;;;;7382827;19;20006;-73
2023/05/10 00:31:53;;;;;;;12.35;1.70;;;15.90;91.00;;;;;;7383061;19;20075;-73
2023/05/10 00:34:21;;;;;;;4.25;1.38;;;15.90;90.90;;;;;;7382579;19;20046;-73
2023/05/10 00:36:50;;;;;;;8.40;1.40;;;15.90;90.70;;;;;;7382573;19;20006;-73
2023/05/10 00:39:18;;;;;;;9.15;1.40;;;15.80;90.70;;;;;;7403009;19;20053;-73
2023/05/10 00:41:50;;;;;;;8.25;1.55;;;15.80;90.60;;;;;;7381300;19;20082;-73
2023/05/10 00:44:18;;;;;;;8.90;1.52;;;15.80;90.80;;;;;;7379891;19;20504;-73
2023/05/10 00:46:48;;;;;;;13.50;1.40;;;15.80;90.60;;;;;;7381695;19;20009;-73
2023/05/10 00:49:16;;;;;;;11.80;1.40;;;15.80;90.80;;;;;;7381547;19;20006;-74
2023/05/10 00:51:45;;;;;;;7.10;1.13;;;15.80;90.60;;;;;;7381587;19;20075;-73
2023/05/10 00:54:14;;;;;;;8.77;1.63;;;15.70;90.60;;;;;;7400970;19;20010;-73
2023/05/10 00:56:48;;;;;;;6.93;1.27;;;15.70;90.70;;;;;;7380918;19;20071;-73
2023/05/10 00:59:20;;;;;;;10.25;1.20;;;15.60;90.60;;;;;;7381111;19;20346;-73
2023/05/10 01:01:49;;;;;;;6.85;1.10;;;15.60;90.80;;;;;;7381106;19;20035;-73
2023/05/10 01:04:19;;;;;;;10.57;1.17;;;15.70;90.80;;;;;;7380490;19;20062;-73
2023/05/10 01:06:48;;;;;;;10.43;1.37;;;15.70;90.70;;;;;;7382494;19;20003;-73
2023/05/10 01:09:17;;;;;;;7.15;1.20;;;15.50;90.70;;;;;;7399534;19;20013;-74
2023/05/10 01:11:47;;;;;;;8.10;1.30;;;15.50;91.00;;;;;;7380172;19;20018;-73
2023/05/10 01:14:15;;;;;;;14.93;1.50;;;15.50;91.00;;;;;;7380828;19;20015;-73
2023/05/10 01:16:48;;;;;;;7.43;1.17;;;15.60;91.00;;;;;;7379636;19;20086;-73
2023/05/10 01:19:21;;;;;;;7.75;1.52;;;15.70;90.90;;;;;;7405293;19;20019;-73
2023/05/10 01:21:56;;;;;;;2.22;0.98;;;15.60;90.60;;;;;;7381752;19;20006;-73
2023/05/10 01:24:51;;;;;;;2.88;0.93;;;15.60;90.70;;;;;;7400284;19;20007;-73
2023/05/10 01:27:35;;;;;;;6.72;1.00;;;15.60;90.80;;;;;;7404437;19;20027;-73
2023/05/10 01:30:37;;;;;;;2.80;1.23;;;15.70;91.10;;;;;;7379324;19;20007;-73
2023/05/10 01:33:13;;;;;;;;;;;15.80;90.90;;;;;;7407052;19;20015;-73
2023/05/10 01:35:48;;;;;;;11.75;1.35;;;15.80;90.50;;;;;;7404679;19;20162;-73
2023/05/10 01:38:25;;;;;;;7.22;1.30;;;15.70;90.50;;;;;;7404392;19;20015;-73
2023/05/10 01:41:04;;;;;;;6.63;1.33;;;15.80;90.60;;;;;;7403867;19;20246;-73
2023/05/10 01:43:39;;;;;;;6.47;1.20;;;15.80;90.50;;;;;;7403701;19;20031;-73
2023/05/10 01:46:13;;;;;;;13.52;1.15;;;15.70;90.50;;;;;;7404420;19;20041;-73
2023/05/10 01:48:50;;;;;;;2.45;0.90;;;15.70;90.50;;;;;;7403114;19;20362;-72
2023/05/10 01:51:25;;;;;;;5.75;1.20;;;15.60;90.60;;;;;;7405792;19;20365;-72
2023/05/10 01:53:57;;;;;;;6.88;0.95;;;15.60;90.40;;;;;;7405412;19;20023;-72
2023/05/10 01:56:28;;;;;;;1.88;0.73;;;15.50;90.70;;;;;;7412632;19;20010;-72
2023/05/10 01:58:59;;;;;;;9.75;1.45;;;15.60;91.00;;;;;;7422863;19;20363;-74
2023/05/10 02:01:29;;;;;;;6.85;1.15;;;15.70;90.60;;;;;;7412324;19;20010;-75
2023/05/10 02:04:01;;;;;;;2.67;0.90;;;15.80;90.70;;;;;;7403637;19;20007;-73
2023/05/10 02:06:30;;;;;;;5.07;1.20;;;15.70;90.40;;;;;;7406215;19;20296;-73
2023/05/10 02:09:00;;;;;;;8.85;1.17;;;15.70;90.40;;;;;;7404203;19;20075;-73
2023/05/10 02:11:30;;;;;;;6.40;0.95;;;15.70;90.40;;;;;;7401877;19;20006;-72
2023/05/10 02:14:01;;;;;;;6.32;1.30;;;15.80;90.80;;;;;;7405568;19;20023;-73
2023/05/10 02:16:30;;;;;;;10.15;1.10;;;15.80;90.70;;;;;;7404055;19;20334;-73
2023/05/10 02:19:03;;;;;;;12.50;1.33;;;15.90;90.90;;;;;;7403939;19;20007;-74
2023/05/10 02:21:33;;;;;;;8.00;1.00;;;16.00;90.70;;;;;;7402996;19;20070;-73
2023/05/10 02:24:05;;;;;;;3.90;1.02;;;16.00;90.30;;;;;;7402795;19;20374;-73
2023/05/10 02:26:36;;;;;;;9.45;1.45;;;16.10;90.30;;;;;;7403768;19;20425;-73
2023/05/10 02:29:06;;;;;;;7.35;1.20;;;16.10;90.30;;;;;;7406703;19;20020;-74
2023/05/10 02:31:38;;;;;;;10.07;1.17;;;16.10;90.30;;;;;;7402834;19;20026;-73
2023/05/10 02:34:11;;;;;;;7.60;1.08;;;16.10;90.20;;;;;;7403204;19;20011;-73
2023/05/10 02:36:41;;;;;;;5.65;1.02;;;16.10;90.20;;;;;;7403200;19;20023;-74
2023/05/10 02:39:13;;;;;;;7.13;1.45;;;16.00;90.30;;;;;;7404319;19;20014;-74
2023/05/10 02:41:42;;;;;;;3.55;1.10;;;15.90;90.50;;;;;;7403542;19;20011;-74
2023/05/10 02:44:12;;;;;;;11.30;1.17;;;15.70;90.50;;;;;;7406821;19;20006;-74
2023/05/10 02:46:41;;;;;;;8.18;1.08;;;15.60;90.80;;;;;;7410523;19;20006;-73
2023/05/10 02:49:12;;;;;;;6.90;1.20;;;15.60;91.00;;;;;;7407886;19;20003;-73
2023/05/10 02:51:46;;;;;;;5.93;1.08;;;15.70;91.10;;;;;;7407359;19;20018;-74
2023/05/10 02:54:20;;;;;;;4.35;1.17;;;15.80;91.50;;;;;;7412066;19;20002;-72
2023/05/10 02:56:53;;;;;;;5.13;1.15;;;15.70;91.00;;;;;;7408142;19;20027;-74
2023/05/10 02:59:22;;;;;;;4.47;1.17;;;15.70;91.10;;;;;;7410671;19;20011;-73
2023/05/10 03:01:51;;;;;;;5.82;1.27;;;15.80;91.20;;;;;;7410642;19;20015;-73
2023/05/10 03:04:22;;;;;;;6.88;1.15;;;15.80;91.10;;;;;;7407175;19;20018;-73
2023/05/10 03:06:51;;;;;;;9.45;1.20;;;15.80;91.20;;;;;;7407037;19;20290;-73
2023/05/10 03:09:20;;;;;;;13.40;1.27;;;15.80;91.10;;;;;;7409654;19;20031;-73
2023/05/10 03:11:58;;;;;;;7.35;1.15;;;15.80;91.00;;;;;;7411014;19;20345;-73
2023/05/10 03:14:37;;;;;;;5.78;1.30;;;15.80;91.20;;;;;;7407228;19;20017;-73
2023/05/10 03:17:12;;;;;;;6.13;1.08;;;15.80;91.20;;;;;;7409497;19;20002;-73
2023/05/10 03:19:50;;;;;;;5.80;1.00;;;15.80;91.20;;;;;;7411129;19;20007;-73
2023/05/10 03:22:27;;;;;;;5.60;1.15;;;15.70;91.10;;;;;;7409219;19;20027;-73
2023/05/10 03:24:59;;;;;;;3.83;1.15;;;15.70;91.30;;;;;;7408800;19;20017;-73
2023/05/10 03:27:30;;;;;;;11.73;2.40;;;15.80;91.30;;;;;;7406992;19;20046;-73
2023/05/10 03:29:59;;;;;;;7.88;1.13;;;15.90;91.10;;;;;;7406144;19;20011;-73
2023/05/10 03:32:30;;;;;;;3.65;1.23;;;15.90;91.30;;;;;;7409441;19;20058;-73
2023/05/10 03:35:02;;;;;;;6.82;0.90;;;16.00;91.30;;;;;;7407084;19;20007;-73
2023/05/10 03:37:30;;;;;;;3.67;0.98;;;15.90;91.20;;;;;;7408768;19;20373;-73
2023/05/10 03:39:59;;;;;;;5.07;1.08;;;15.90;91.20;;;;;;7410786;19;20033;-73
2023/05/10 03:42:28;;;;;;;4.43;1.00;;;16.00;91.40;;;;;;7406145;19;20023;-72
2023/05/10 03:44:57;;;;;;;5.13;1.20;;;16.00;91.30;;;;;;7409152;19;20011;-72
2023/05/10 03:47:25;;;;;;;13.70;1.65;;;15.90;91.50;;;;;;7408243;19;20369;-73
2023/05/10 03:49:54;;;;;;;13.77;1.73;;;15.80;92.00;;;;;;7407714;19;20007;-73
2023/05/10 03:52:25;;;;;;;7.40;1.60;;;15.70;92.90;;;;;;7405656;19;20366;-73
2023/05/10 03:54:54;;;;;;;10.18;1.75;;;15.60;93.40;;;;;;7407323;19;20246;-74
2023/05/10 03:57:23;;;;;;;4.85;1.27;;;15.60;93.40;;;;;;7407797;19;20397;-73
2023/05/10 03:59:51;;;;;;;7.65;1.73;;;15.60;93.50;;;;;;7408741;19;20011;-73
2023/05/10 04:02:20;;;;;;;6.00;1.55;;;15.60;93.80;;;;;;7407843;19;20010;-73
2023/05/10 04:04:49;;;;;;;8.35;1.30;;;15.60;93.90;;;;;;7406868;19;20070;-73
2023/05/10 04:07:18;;;;;;;2.90;1.13;;;15.70;93.80;;;;;;7408275;19;20002;-73
2023/05/10 04:09:50;;;;;;;10.65;1.45;;;15.80;93.80;;;;;;7407909;19;20007;-73
2023/05/10 04:12:18;;;;;;;8.77;1.55;;;15.80;93.90;;;;;;7408364;19;20034;-73
2023/05/10 04:14:47;;;;;;;2.72;1.17;;;15.90;94.00;;;;;;7411610;19;20016;-73
2023/05/10 04:17:16;;;;;;;9.52;1.40;;;15.90;94.30;;;;;;7429120;19;20010;-73
2023/05/10 04:19:44;;;;;;;5.22;1.25;;;15.90;93.70;;;;;;7412602;19;20011;-73
2023/05/10 04:22:13;;;;;;;7.57;1.35;;;15.90;93.90;;;;;;7405910;19;20291;-73
2023/05/10 04:24:42;;;;;;;11.77;1.30;;;15.90;93.80;;;;;;7406141;19;20007;-73
2023/05/10 04:27:13;;;;;;;10.77;1.20;;;15.80;93.90;;;;;;7410126;19;20006;-75
2023/05/10 04:29:41;;;;;;;;;;;15.80;93.90;;;;;;7410835;19;20007;-74
2023/05/10 04:32:10;;;;;;;5.53;1.33;;;15.80;94.00;;;;;;7410551;19;19906;-74
2023/05/10 04:34:39;;;;;;;4.80;1.33;;;15.80;94.10;;;;;;7410831;19;20010;-74
2023/05/10 04:37:08;;;;;;;6.53;1.30;;;15.80;94.00;;;;;;7408105;19;20027;-72
2023/05/10 04:39:37;;;;;;;4.80;1.63;;;15.80;94.20;;;;;;7408822;19;20010;-72
2023/05/10 04:42:06;;;;;;;10.57;1.90;;;15.90;94.40;;;;;;7406401;19;20035;-73
2023/05/10 04:44:38;;;;;;;3.70;1.50;;;15.90;94.60;;;;;;7404009;19;20280;-73
2023/05/10 04:47:09;;;;;;;5.20;1.30;;;15.90;94.30;;;;;;7404736;19;20006;-73
2023/05/10 04:49:38;;;;;;;2.42;1.23;;;15.90;94.50;;;;;;7406494;19;20006;-73
2023/05/10 04:52:07;;;;;;;6.40;1.30;;;15.80;94.60;;;;;;7406231;19;20079;-73
2023/05/10 04:54:35;;;;;;;5.18;1.27;;;15.80;95.00;;;;;;7407289;19;20014;-74
2023/05/10 04:57:04;;;;;;;4.10;1.27;;;15.80;94.90;;;;;;7402958;19;19999;-73
2023/05/10 04:59:33;;;;;;;7.30;1.45;;;15.90;95.10;;;;;;7407050;19;20010;-74
2023/05/10 05:02:04;;;;;;;6.20;1.40;;;15.90;94.80;;;;;;7406083;19;20007;-74
2023/05/10 05:04:33;;;;;;;;;;;15.80;95.10;;;;;;7406297;19;20006;-74
2023/05/10 05:07:01;;;;;;;6.40;1.45;;;15.70;94.40;;;;;;7404005;19;20135;-72
2023/05/10 05:09:31;;;;;;;5.10;1.20;;;15.70;94.50;;;;;;7404262;19;20062;-73
2023/05/10 05:12:00;;;;;;;2.35;1.40;;;15.70;94.60;;;;;;7404570;19;20035;-72
2023/05/10 05:14:29;;;;;;;5.78;1.40;;;15.50;94.30;;;;;;7407291;19;20014;-73
2023/05/10 05:17:00;;;;;;;4.07;1.25;;;15.50;94.60;;;;;;7410805;19;20021;-73
2023/05/10 05:19:34;;;;;;;3.58;1.50;;;15.40;94.70;;;;;;7408030;19;20006;-73
2023/05/10 05:22:02;;;;;;;2.70;1.35;;;15.40;94.90;;;;;;7405261;19;20382;-72
2023/05/10 05:24:31;;;;;;;5.15;1.55;;;15.40;94.90;;;;;;7405467;19;20027;-72
2023/05/10 05:27:00;;;;;;;9.23;1.63;;;15.40;95.00;;;;;;7405568;19;20029;-74
2023/05/10 05:29:29;;;;;;;2.70;1.40;;;15.30;94.90;;;;;;7406161;19;20030;-73
2023/05/10 05:31:58;;;;;;;10.85;1.98;;;15.20;94.90;;;;;;7408990;19;20362;-73
2023/05/10 05:34:26;;;;;;;5.97;1.48;;;15.30;95.20;;;;;;7406399;19;20055;-73
2023/05/10 05:36:58;;;;;;;6.75;1.45;;;15.30;95.20;;;;;;7406254;19;20026;-73
2023/05/10 05:39:26;;;;;;;3.40;1.52;;;15.30;95.10;;;;;;7406346;19;20087;-73
2023/05/10 05:41:55;;;;;;;5.15;1.77;;;15.40;95.20;;;;;;7404867;19;20052;-72
2023/05/10 05:44:24;;;;;;;7.15;1.67;;;15.30;95.20;;;;;;7403029;19;20007;-73
2023/05/10 05:46:52;;;;;;;6.25;1.77;;;15.50;95.50;;;;;;7406921;19;20014;-73
2023/05/10 05:49:21;;;;;;;11.80;1.63;;;15.60;95.50;;;;;;7404394;19;20381;-73
2023/05/10 05:51:50;;;;;;;4.10;1.52;;;15.70;95.60;;;;;;7405722;19;20027;-74
2023/05/10 05:54:21;;;;;;;4.70;2.05;;;15.80;95.20;;;;;;7404922;19;20010;-73
2023/05/10 05:56:50;;;;;;;5.93;1.95;;;15.90;95.10;;;;;;7402803;19;20032;-74
2023/05/10 05:59:18;;;;;;;7.68;1.80;;;15.90;95.20;;;;;;7404421;19;20028;-73
2023/05/10 06:01:48;;;;;;;6.93;1.95;;;15.80;95.20;;;;;;7404673;19;20366;-73
2023/05/10 06:04:17;;;;;;;7.32;1.95;;;15.90;95.00;;;;;;7404453;19;20070;-73
2023/05/10 06:06:46;;;;;;;8.70;2.10;;;15.60;95.10;;;;;;7404797;19;20010;-73
2023/05/10 06:09:15;;;;;;;13.20;2.13;;;15.50;95.80;;;;;;7407017;19;20010;-74
2023/05/10 06:11:47;;;;;;;9.27;2.47;;;15.40;96.00;;;;;;7404356;19;20059;-74
2023/05/10 06:14:15;;;;;;;7.28;2.35;;;15.40;96.10;;;;;;7404292;19;19999;-73
2023/05/10 06:16:44;;;;;;;9.90;2.40;;;15.40;96.30;;;;;;7403301;19;20070;-73
2023/05/10 06:19:13;;;;;;;10.07;2.20;;;15.50;96.50;;;;;;7402073;19;20018;-73
2023/05/10 06:21:41;;;;;;;9.60;2.60;;;15.40;96.50;;;;;;7402002;19;20026;-73
2023/05/10 06:24:10;;;;;;;8.43;1.92;;;15.50;96.60;;;;;;7407859;19;20003;-73
2023/05/10 06:26:39;;;;;;;9.13;1.80;;;15.30;96.20;;;;;;7401586;19;20066;-73
2023/05/10 06:29:10;;;;;;;4.35;2.03;;;15.40;96.70;;;;;;7403899;19;20071;-73
2023/05/10 06:31:39;;;;;;;7.30;2.47;;;15.30;96.60;;;;;;7404444;19;20066;-73
2023/05/10 06:34:08;;;;;;;6.43;2.50;;;15.40;96.60;;;;;;7409481;19;20013;-74
2023/05/10 06:36:37;;;;;;;8.68;2.13;;;15.50;96.70;;;;;;7416849;19;20020;-72
2023/05/10 06:39:06;;;;;;;6.60;1.83;;;15.40;96.60;;;;;;7408780;19;20002;-73
2023/05/10 06:41:35;;;;;;;10.65;2.30;;;15.20;96.50;;;;;;7405768;19;20007;-73
2023/05/10 06:44:05;;;;;;;6.65;1.90;;;15.20;96.90;;;;;;7405266;19;20006;-73
2023/05/10 06:46:37;;;;;;;5.05;1.90;;;15.10;96.70;;;;;;7403669;19;20377;-73
2023/05/10 06:49:05;;;;;;;6.22;1.60;;;15.20;97.20;;;;;;7406967;19;20357;-73
2023/05/10 06:51:37;;;;;;;6.13;1.63;;;15.30;97.00;;;;;;7403175;19;20405;-73
2023/05/10 06:54:06;;;;;;;7.85;1.80;;;15.50;97.30;;;;;;7402406;19;19999;-73
2023/05/10 06:56:35;;;;;;;3.65;1.42;;;15.50;97.10;;;;;;7404717;19;20018;-73
2023/05/10 06:59:03;;;;;;;6.72;1.20;;;15.40;96.90;;;;;;7404650;19;20003;-72
2023/05/10 07:01:32;;;;;;;2.08;1.30;;;15.50;96.70;;;;;;7402225;19;20255;-73
2023/05/10 07:04:03;;;;;;;3.33;1.10;;;15.40;96.90;;;;;;7402990;19;20014;-73
2023/05/10 07:06:33;;;;;;;;;;;15.30;96.70;;;;;;7401843;19;20030;-72
2023/05/10 07:09:02;;;;;;;2.50;1.17;;;15.20;96.90;;;;;;7402456;19;19914;-72
2023/05/10 07:11:30;;;;;;;3.70;1.27;;;15.40;96.80;;;;;;7400308;19;20369;-72
2023/05/10 07:13:59;;;;;;;2.03;1.05;;;15.10;96.70;;;;;;7402507;19;20035;-73
2023/05/10 07:16:28;;;;;;;6.53;1.30;;;15.10;96.70;;;;;;7400342;19;20010;-72
2023/05/10 07:18:57;;;;;;;3.83;1.00;;;15.20;97.10;;;;;;7403710;19;20024;-72
2023/05/10 07:21:28;;;;;;;3.45;1.00;;;15.30;97.10;;;;;;7400662;19;20010;-72
2023/05/10 07:23:57;;;;;;;3.58;1.08;;;15.50;97.00;;;;;;7401691;19;20477;-72
2023/05/10 07:26:26;;;;;;;1.60;1.02;;;15.40;96.80;;;;;;7399495;19;20010;-72
2023/05/10 07:28:55;;;;;;;3.33;0.95;;;15.40;96.60;;;;;;7403302;19;20006;-72
2023/05/10 07:31:23;;;;;;;1.98;1.20;;;15.50;96.60;;;;;;7407087;19;20006;-71
2023/05/10 07:33:52;;;;;;;3.17;1.63;;;15.50;96.70;;;;;;7409657;19;20018;-72
2023/05/10 07:36:21;;;;;;;3.63;1.42;;;15.60;96.60;;;;;;7411164;19;20567;-72
2023/05/10 07:38:52;;;;;;;6.07;1.10;;;15.50;96.80;;;;;;7410268;19;20078;-72
2023/05/10 07:41:22;;;;;;;3.95;1.63;;;15.50;96.50;;;;;;7409471;19;20011;-73
2023/05/10 07:43:51;;;;;;;5.15;1.42;;;15.40;96.80;;;;;;7408550;19;20280;-75
2023/05/10 07:46:20;;;;;;;3.80;1.50;;;15.30;97.40;;;;;;7408664;19;20030;-72
2023/05/10 07:48:48;;;;;;;6.53;1.33;;;15.50;97.00;;;;;;7408759;19;20006;-75
2023/05/10 07:51:17;;;;;;;5.47;1.60;;;15.20;97.30;;;;;;7404243;19;20027;-75
2023/05/10 07:53:46;;;;;;;6.90;1.83;;;15.40;97.30;;;;;;7382459;19;20006;-76
2023/05/10 07:56:31;;;;;;;3.05;1.33;;;15.30;97.20;;;;;;7384989;19;20023;-76
2023/05/10 07:59:01;;;;;;;2.95;1.50;;;15.10;97.40;;;;;;7385495;19;20425;-75
2023/05/10 08:01:33;;;;;;;2.13;1.25;;;15.00;98.00;;;;;;7383852;19;20019;-75
2023/05/10 08:04:01;;;;;;;3.22;1.42;;;15.10;97.70;;;;;;7382690;19;20017;-74
2023/05/10 08:06:30;;;;;;;5.38;1.52;;;15.30;97.70;;;;;;7403282;19;20015;-75
2023/05/10 08:08:59;;;;;;;3.22;1.20;;;15.20;97.30;;;;;;7381889;19;20018;-75
2023/05/10 08:11:30;;;;;;;4.45;1.23;;;15.30;97.60;;;;;;7381374;19;20002;-77
2023/05/10 08:13:59;;;;;;;4.72;1.15;;;15.30;97.50;;;;;;7383712;19;20066;-75
2023/05/10 08:16:28;;;;;;;1.67;0.80;;;15.70;97.50;;;;;;7381744;19;20013;-76
2023/05/10 08:18:57;;;;;;;3.92;0.93;;;15.60;96.90;;;;;;7383865;19;20027;-77
2023/05/10 08:21:26;;;;;;;4.50;0.80;;;15.70;96.90;;;;;;7402920;19;20242;-75
2023/05/10 08:23:55;;;;;;;1.38;0.80;;;15.60;96.70;;;;;;7382027;19;20369;-74
2023/05/10 08:26:24;;;;;;;3.67;0.73;;;15.50;97.00;;;;;;7381172;19;20009;-75
2023/05/10 08:28:55;;;;;;;1.73;0.82;;;15.60;97.00;;;;;;7382847;19;20041;-77
2023/05/10 08:31:24;;;;;;;2.72;0.82;;;15.80;97.00;;;;;;7382890;19;20007;-75
2023/05/10 08:33:53;;;;;;;6.97;1.35;;;15.50;97.00;;;;;;7382399;19;20010;-75
2023/05/10 08:36:24;;;;;;;7.63;1.60;;;15.70;97.00;;;;;;7401259;19;20013;-75
2023/05/10 08:38:53;;;;;;;5.75;1.48;;;15.50;96.70;;;;;;7381632;19;20078;-76
2023/05/10 08:41:23;;;;;;;6.65;1.92;;;15.60;97.10;;;;;;7381150;19;20110;-75
2023/05/10 08:43:56;;;;;;;15.50;2.28;;;15.70;96.80;;;;;;7381806;19;20010;-75
2023/05/10 08:46:26;;;;;;;11.77;2.92;;;15.60;96.70;;;;;;7380954;19;20293;-76
2023/05/10 08:48:56;;;;;;;8.90;2.50;;;15.60;96.40;;;;;;7382401;19;20027;-75
2023/05/10 08:51:29;;;;;;;11.93;2.90;;;15.40;96.20;;;;;;7404426;19;20673;-75
2023/05/10 08:53:58;;;;;;;15.07;2.72;;;15.20;96.90;;;;;;7389437;19;20007;-76
2023/05/10 08:56:27;;;;;;;9.90;2.70;;;15.20;96.60;;;;;;7399770;19;20003;-75
2023/05/10 08:59:00;;;;;;;22.27;3.50;;;15.20;96.70;;;;;;7386649;19;20006;-77
2023/05/10 09:01:30;;;;;;;19.00;4.13;;;15.10;96.80;;;;;;7383407;19;20030;-76
2023/05/10 09:03:59;;;;;;;14.15;3.20;;;15.00;97.00;;;;;;7383276;19;20007;-76
2023/05/10 09:06:28;;;;;;;22.25;3.70;;;15.00;97.50;;;;;;7403911;19;20264;-76
2023/05/10 09:08:58;;;;;;;25.20;4.53;;;15.00;97.30;;;;;;7381772;19;20314;-76
2023/05/10 09:11:28;;;;;;;30.35;4.20;;;15.10;96.90;;;;;;7381985;19;20042;-76
2023/05/10 09:14:00;;;;;;;15.55;3.47;;;15.00;96.60;;;;;;7381768;19;20010;-76
2023/05/10 09:16:29;;;;;;;26.55;4.45;;;15.10;97.10;;;;;;7380280;19;20007;-76
2023/05/10 09:18:57;;;;;;;26.15;4.68;;;15.00;97.00;;;;;;7381457;19;20026;-77
2023/05/10 09:21:26;;;;;;;23.13;4.32;;;15.20;97.00;;;;;;7402549;19;20027;-76
2023/05/10 09:23:55;;;;;;;24.55;4.45;;;15.30;96.70;;;;;;7380304;19;20060;-76
2023/05/10 09:26:26;;;;;;;26.10;4.43;;;15.30;96.70;;;;;;7379695;19;20020;-76
2023/05/10 09:28:56;;;;;;;20.33;4.25;;;15.30;97.00;;;;;;7381503;19;20026;-76
2023/05/10 09:31:46;;;;;;;28.00;4.35;;;15.50;96.80;;;;;;7378652;19;20002;-75
2023/05/10 09:34:18;;;;;;;26.98;4.93;;;15.70;96.40;;;;;;7380058;19;20011;-75
2023/05/10 09:37:01;;;;;;;25.10;5.53;;;15.60;96.00;;;;;;7380053;19;20003;-76
2023/05/10 09:39:37;;;;;;;28.98;4.45;;;15.60;96.10;;;;;;7402098;19;20358;-77
2023/05/10 09:42:08;;;;;;;32.13;5.15;;;15.80;96.10;;;;;;7379554;19;20054;-77
2023/05/10 09:44:38;;;;;;;23.98;4.75;;;15.80;95.70;;;;;;7380251;19;20026;-76
2023/05/10 09:47:09;;;;;;;19.63;4.65;;;15.90;95.40;;;;;;7378201;19;20006;-77
2023/05/10 09:49:38;;;;;;;27.33;4.75;;;16.00;95.50;;;;;;7380598;19;20003;-76
2023/05/10 09:52:08;;;;;;;22.63;4.15;;;16.10;95.50;;;;;;7379172;19;20006;-77
2023/05/10 09:54:37;;;;;;;22.13;4.50;;;16.00;95.30;;;;;;7402096;19;19999;-75
2023/05/10 09:57:05;;;;;;;25.45;5.07;;;16.10;95.00;;;;;;7380245;19;20070;-76
2023/05/10 09:59:37;;;;;;;21.20;4.10;;;15.80;95.20;;;;;;7381015;19;20014;-75
2023/05/10 10:02:09;;;;;;;27.77;4.57;;;16.00;95.20;;;;;;7380256;19;20009;-76
2023/05/10 10:04:42;;;;;;;26.63;4.93;;;16.10;94.90;;;;;;7379926;19;20006;-76
2023/05/10 10:07:11;;;;;;;27.23;4.30;;;16.20;95.00;;;;;;7378506;19;20373;-76
2023/05/10 10:09:39;;;;;;;25.10;5.07;;;16.10;94.60;;;;;;7401016;19;20031;-76
2023/05/10 10:12:09;;;;;;;17.85;4.28;;;16.10;94.50;;;;;;7378687;19;20007;-76
2023/05/10 10:14:38;;;;;;;27.58;4.65;;;16.40;94.60;;;;;;7378246;19;20005;-76
2023/05/10 10:17:10;;;;;;;27.05;4.93;;;16.20;94.40;;;;;;7378981;19;20054;-76
2023/05/10 10:19:38;;;;;;;34.05;4.93;;;16.10;94.30;;;;;;7379765;19;20006;-76
2023/05/10 10:22:08;;;;;;;18.48;4.38;;;16.10;94.20;;;;;;7377842;19;20011;-75
2023/05/10 10:24:36;;;;;;;19.13;4.47;;;16.10;94.50;;;;;;7401078;19;20405;-76
2023/05/10 10:27:14;;;;;;;29.92;4.72;;;15.90;94.50;;;;;;7377913;19;20024;-75
2023/05/10 10:29:52;;;;;;;36.20;5.10;;;16.00;94.80;;;;;;7378028;19;20007;-75
2023/05/10 10:32:38;;;;;;;22.67;4.35;;;15.90;94.80;;;;;;7378036;19;20007;-75
2023/05/10 10:35:09;;;;;;;28.60;4.20;;;16.10;94.60;;;;;;7378349;19;20002;-75
2023/05/10 10:37:48;;;;;;;26.30;5.10;;;16.30;94.20;;;;;;7380626;19;20010;-76
2023/05/10 10:40:32;;;;;;;19.52;3.92;;;16.30;94.30;;;;;;7381637;19;20015;-75
2023/05/10 10:43:25;;;;;;;23.15;4.32;;;16.60;93.90;;;;;;7379171;19;20024;-74
2023/05/10 10:46:16;;;;;;;16.42;4.05;;;16.60;93.40;;;;;;7377789;19;20010;-76
2023/05/10 10:49:11;;;;;;;21.20;4.57;;;16.70;93.60;;;;;;7376683;19;20031;-76
2023/05/10 10:51:40;;;;;;;22.63;3.42;;;16.70;93.60;;;;;;7399694;19;20114;-76
2023/05/10 10:54:12;;;;;;;28.33;4.57;;;16.60;93.00;;;;;;7378378;19;20014;-76
2023/05/10 10:56:41;;;;;;;24.40;3.30;;;16.40;92.90;;;;;;7377139;19;20006;-76
2023/05/10 10:59:10;;;;;;;26.42;3.90;;;16.60;93.00;;;;;;7377046;19;20006;-76
2023/05/10 11:01:39;;;;;;;18.55;3.38;;;16.70;92.80;;;;;;7377935;19;20019;-76
2023/05/10 11:04:27;;;;;;;16.27;3.42;;;16.90;92.80;;;;;;7379357;19;20016;-76
2023/05/10 11:07:22;;;;;;;27.05;3.70;;;17.00;92.40;;;;;;7383319;19;20011;-76
2023/05/10 11:09:53;;;;;;;16.98;3.63;;;16.90;92.20;;;;;;7383946;19;19999;-76
2023/05/10 11:12:22;;;;;;;21.75;4.03;;;16.80;92.00;;;;;;7410622;19;20046;-76
2023/05/10 11:14:53;;;;;;;21.05;4.10;;;17.00;92.10;;;;;;7398832;19;20024;-75
2023/05/10 11:17:30;;;;;;;13.48;3.10;;;17.10;92.50;;;;;;7394931;19;20010;-75
2023/05/10 11:20:12;;;;;;;20.38;3.72;;;17.10;91.70;;;;;;7389957;19;20405;-76
2023/05/10 11:22:56;;;;;;;18.77;3.25;;;17.30;92.10;;;;;;7384890;19;20006;-76
2023/05/10 11:25:29;;;;;;;29.70;3.90;;;17.30;91.30;;;;;;7383558;19;20015;-74
2023/05/10 11:27:58;;;;;;;19.55;3.10;;;17.30;91.30;;;;;;7383285;19;20003;-75
2023/05/10 11:30:27;;;;;;;21.70;3.80;;;17.40;91.50;;;;;;7403078;19;20006;-75
2023/05/10 11:32:56;;;;;;;26.92;3.88;;;17.60;91.50;;;;;;7385575;19;19999;-75
2023/05/10 11:35:25;;;;;;;20.52;3.60;;;17.80;91.30;;;;;;7383322;19;20717;-76
2023/05/10 11:37:59;;;;;;;17.05;3.78;;;17.50;91.00;;;;;;7384279;19;20070;-76
2023/05/10 11:40:27;;;;;;;18.08;3.53;;;17.50;90.80;;;;;;7384635;19;20002;-76
2023/05/10 11:42:58;;;;;;;23.15;4.20;;;17.70;90.30;;;;;;7384930;19;20002;-76
2023/05/10 11:45:27;;;;;;;18.00;3.67;;;17.60;90.40;;;;;;7405715;19;20010;-76
2023/05/10 11:47:56;;;;;;;16.25;3.58;;;17.40;90.10;;;;;;7381644;19;20026;-76
2023/05/10 11:50:25;;;;;;;19.58;3.40;;;17.40;90.40;;;;;;7383324;19;20002;-76
2023/05/10 11:52:55;;;;;;;11.90;3.30;;;17.40;90.60;;;;;;7383885;19;20003;-78
2023/05/10 11:55:26;;;;;;;16.67;3.70;;;17.50;90.30;;;;;;7382510;19;20018;-79
2023/05/10 11:57:57;;;;;;;12.50;2.85;;;17.50;90.20;;;;;;7385181;19;20018;-76
2023/05/10 12:00:26;;;;;;;20.83;3.42;;;17.70;89.90;;;;;;7405071;19;20019;-75
2023/05/10 12:02:55;;;;;;;13.10;2.90;;;17.70;89.10;;;;;;7386932;19;20047;-76
2023/05/10 12:05:24;;;;;;;11.05;3.03;;;17.80;88.60;;;;;;7385166;19;20002;-76
2023/05/10 12:07:53;;;;;;;18.85;3.28;;;18.00;90.10;;;;;;7385180;19;20014;-74
2023/05/10 12:10:32;;;;;;;19.27;3.33;;;18.20;89.80;;;;;;7384454;19;20323;-78
2023/05/10 12:13:01;;;;;;;14.80;3.17;;;18.20;88.50;;;;;;7386653;19;20014;-77
2023/05/10 12:15:30;;;;;;;19.50;3.28;;;18.10;88.30;;;;;;7407414;19;20014;-74
2023/05/10 12:18:02;;;;;;;13.95;3.20;;;18.20;86.40;;;;;;7384670;19;20027;-75
2023/05/10 12:20:31;;;;;;;12.05;3.38;;;18.20;86.80;;;;;;7386164;19;20010;-76
2023/05/10 12:23:02;;;;;;;16.05;2.80;;;18.10;87.60;;;;;;7388725;19;20051;-76
2023/05/10 12:25:36;;;;;;;17.73;2.85;;;18.20;88.20;;;;;;7389133;19;20010;-76
2023/05/10 12:28:07;;;;;;;17.23;3.08;;;18.30;87.30;;;;;;7387579;19;20003;-76
2023/05/10 12:30:39;;;;;;;14.73;3.30;;;18.40;86.70;;;;;;7408110;19;20031;-74
2023/05/10 12:33:11;;;;;;;15.52;3.28;;;18.60;85.70;;;;;;7388986;19;20017;-75
2023/05/10 12:35:48;;;;;;;11.00;2.85;;;18.30;83.70;;;;;;7388206;19;20271;-76
2023/05/10 12:38:29;;;;;;;16.55;3.03;;;18.20;84.50;;;;;;7389082;19;20027;-75
2023/05/10 12:41:01;;;;;;;10.48;2.90;;;18.20;85.40;;;;;;7389404;19;20015;-76
2023/05/10 12:43:30;;;;;;;15.27;3.08;;;18.30;85.90;;;;;;7387460;19;20006;-74
2023/05/10 12:45:58;;;;;;;13.52;2.67;;;18.30;85.80;;;;;;7388257;19;20017;-74
2023/05/10 12:48:28;;;;;;;17.65;3.42;;;18.40;85.90;;;;;;7407738;19;20085;-77
2023/05/10 12:50:57;;;;;;;9.25;3.00;;;18.50;86.30;;;;;;7386150;19;20249;-76
2023/05/10 12:53:26;;;;;;;15.20;2.83;;;18.40;86.10;;;;;;7385847;19;20078;-76
2023/05/10 12:55:55;;;;;;;14.73;3.13;;;18.20;86.00;;;;;;7387844;19;19999;-75
2023/05/10 12:58:26;;;;;;;18.30;2.92;;;18.40;85.80;;;;;;7387547;19;20023;-75
2023/05/10 13:00:56;;;;;;;12.93;3.08;;;18.50;86.30;;;;;;7386484;19;20091;-75
2023/05/10 13:03:25;;;;;;;13.85;2.92;;;18.50;84.50;;;;;;7406463;19;20010;-75